sensor_id;sensor_type;location;lat;lon;timestamp;temperature;humidity
43949;DHT22;29429;51.074;13.764;2022-07-05T00:00:23;18.10;87.60
43949;DHT22;29429;51.074;13.764;2022-07-05T00:02:50;18.00;87.60
43949;DHT22;29429;51.074;13.764;2022-07-05T00:05:17;18.00;87.50
43949;DHT22;29429;51.074;13.764;2022-07-05T00:07:44;18.00;87.70
43949;DHT22;29429;51.074;13.764;2022-07-05T00:10:11;18.00;88.00
43949;DHT22;29429;51.074;13.764;2022-07-05T00:12:38;18.00;88.40
43949;DHT22;29429;51.074;13.764;2022-07-05T00:15:05;18.00;88.20
43949;DHT22;29429;51.074;13.764;2022-07-05T00:17:32;17.90;88.00
43949;DHT22;29429;51.074;13.764;2022-07-05T00:19:59;18.00;88.00
43949;DHT22;29429;51.074;13.764;2022-07-05T00:22:26;17.90;88.50
43949;DHT22;29429;51.074;13.764;2022-07-05T00:24:56;17.90;89.20
43949;DHT22;29429;51.074;13.764;2022-07-05T00:27:24;18.00;89.40
43949;DHT22;29429;51.074;13.764;2022-07-05T00:29:51;18.00;89.30
43949;DHT22;29429;51.074;13.764;2022-07-05T00:32:18;17.80;89.80
43949;DHT22;29429;51.074;13.764;2022-07-05T00:34:45;17.80;89.30
43949;DHT22;29429;51.074;13.764;2022-07-05T00:37:13;17.90;89.40
43949;DHT22;29429;51.074;13.764;2022-07-05T00:39:40;17.80;89.60
43949;DHT22;29429;51.074;13.764;2022-07-05T00:42:07;17.80;89.90
43949;DHT22;29429;51.074;13.764;2022-07-05T00:44:37;17.80;89.80
43949;DHT22;29429;51.074;13.764;2022-07-05T00:47:08;17.70;90.00
43949;DHT22;29429;51.074;13.764;2022-07-05T00:49:37;17.80;90.50
43949;DHT22;29429;51.074;13.764;2022-07-05T00:52:06;17.70;90.80
43949;DHT22;29429;51.074;13.764;2022-07-05T00:54:49;17.60;91.20
43949;DHT22;29429;51.074;13.764;2022-07-05T00:57:16;17.60;91.10
43949;DHT22;29429;51.074;13.764;2022-07-05T00:59:46;17.30;91.50
43949;DHT22;29429;51.074;13.764;2022-07-05T01:02:13;17.40;91.60
43949;DHT22;29429;51.074;13.764;2022-07-05T01:04:48;17.40;91.60
43949;DHT22;29429;51.074;13.764;2022-07-05T01:07:19;17.40;91.50
43949;DHT22;29429;51.074;13.764;2022-07-05T01:09:48;17.40;91.60
43949;DHT22;29429;51.074;13.764;2022-07-05T01:12:16;17.30;91.90
43949;DHT22;29429;51.074;13.764;2022-07-05T01:14:44;17.30;92.20
43949;DHT22;29429;51.074;13.764;2022-07-05T01:17:12;17.30;92.40
43949;DHT22;29429;51.074;13.764;2022-07-05T01:19:40;17.30;92.60
43949;DHT22;29429;51.074;13.764;2022-07-05T01:22:18;17.20;92.70
43949;DHT22;29429;51.074;13.764;2022-07-05T01:24:48;17.20;92.80
43949;DHT22;29429;51.074;13.764;2022-07-05T01:27:18;17.20;93.00
43949;DHT22;29429;51.074;13.764;2022-07-05T01:29:46;17.10;93.20
43949;DHT22;29429;51.074;13.764;2022-07-05T01:32:14;17.10;93.20
43949;DHT22;29429;51.074;13.764;2022-07-05T01:34:42;16.90;93.30
43949;DHT22;29429;51.074;13.764;2022-07-05T01:37:10;17.00;93.80
43949;DHT22;29429;51.074;13.764;2022-07-05T01:39:38;17.00;93.90
43949;DHT22;29429;51.074;13.764;2022-07-05T01:42:06;16.90;94.10
43949;DHT22;29429;51.074;13.764;2022-07-05T01:44:33;16.80;94.40
43949;DHT22;29429;51.074;13.764;2022-07-05T01:47:05;16.80;94.50
43949;DHT22;29429;51.074;13.764;2022-07-05T01:49:46;16.70;94.80
43949;DHT22;29429;51.074;13.764;2022-07-05T01:52:16;16.70;94.90
43949;DHT22;29429;51.074;13.764;2022-07-05T01:54:48;16.70;95.10
43949;DHT22;29429;51.074;13.764;2022-07-05T01:57:15;16.70;95.30
43949;DHT22;29429;51.074;13.764;2022-07-05T01:59:42;16.60;95.80
43949;DHT22;29429;51.074;13.764;2022-07-05T02:02:09;16.70;96.10
43949;DHT22;29429;51.074;13.764;2022-07-05T02:04:37;16.60;96.20
43949;DHT22;29429;51.074;13.764;2022-07-05T02:07:09;16.70;96.60
43949;DHT22;29429;51.074;13.764;2022-07-05T02:09:37;16.60;96.70
43949;DHT22;29429;51.074;13.764;2022-07-05T02:12:05;16.60;96.90
43949;DHT22;29429;51.074;13.764;2022-07-05T02:14:33;16.60;97.10
43949;DHT22;29429;51.074;13.764;2022-07-05T02:17:03;16.50;97.50
43949;DHT22;29429;51.074;13.764;2022-07-05T02:19:32;16.40;97.70
43949;DHT22;29429;51.074;13.764;2022-07-05T02:22:00;16.50;98.10
43949;DHT22;29429;51.074;13.764;2022-07-05T02:24:27;16.40;98.10
43949;DHT22;29429;51.074;13.764;2022-07-05T02:27:07;16.20;98.30
43949;DHT22;29429;51.074;13.764;2022-07-05T02:29:34;16.20;98.80
43949;DHT22;29429;51.074;13.764;2022-07-05T02:32:02;16.20;99.20
43949;DHT22;29429;51.074;13.764;2022-07-05T02:34:29;16.20;99.50
43949;DHT22;29429;51.074;13.764;2022-07-05T02:36:56;16.20;99.50
43949;DHT22;29429;51.074;13.764;2022-07-05T02:39:24;16.10;99.80
43949;DHT22;29429;51.074;13.764;2022-07-05T02:41:54;16.20;99.90
43949;DHT22;29429;51.074;13.764;2022-07-05T02:44:21;16.20;99.90
43949;DHT22;29429;51.074;13.764;2022-07-05T02:46:49;16.10;99.90
43949;DHT22;29429;51.074;13.764;2022-07-05T02:49:17;16.00;99.90
43949;DHT22;29429;51.074;13.764;2022-07-05T02:51:44;15.90;99.90
43949;DHT22;29429;51.074;13.764;2022-07-05T02:54:12;15.80;99.90
43949;DHT22;29429;51.074;13.764;2022-07-05T02:56:40;15.70;99.90
43949;DHT22;29429;51.074;13.764;2022-07-05T02:59:09;15.80;99.90
43949;DHT22;29429;51.074;13.764;2022-07-05T03:01:37;15.70;99.90
43949;DHT22;29429;51.074;13.764;2022-07-05T03:04:09;15.70;99.90
43949;DHT22;29429;51.074;13.764;2022-07-05T03:06:39;15.70;99.90
43949;DHT22;29429;51.074;13.764;2022-07-05T03:09:06;15.70;99.90
43949;DHT22;29429;51.074;13.764;2022-07-05T03:11:35;15.70;99.90
43949;DHT22;29429;51.074;13.764;2022-07-05T03:14:02;15.80;99.90
43949;DHT22;29429;51.074;13.764;2022-07-05T03:16:29;15.60;99.90
43949;DHT22;29429;51.074;13.764;2022-07-05T03:18:56;15.60;99.90
43949;DHT22;29429;51.074;13.764;2022-07-05T03:21:24;15.70;99.90
43949;DHT22;29429;51.074;13.764;2022-07-05T03:23:52;15.60;99.90
43949;DHT22;29429;51.074;13.764;2022-07-05T03:26:19;15.70;99.90
43949;DHT22;29429;51.074;13.764;2022-07-05T03:28:47;15.70;99.90
43949;DHT22;29429;51.074;13.764;2022-07-05T03:31:14;15.80;99.90
43949;DHT22;29429;51.074;13.764;2022-07-05T03:33:42;15.80;99.90
43949;DHT22;29429;51.074;13.764;2022-07-05T03:36:11;15.70;99.90
43949;DHT22;29429;51.074;13.764;2022-07-05T03:38:39;15.70;99.90
43949;DHT22;29429;51.074;13.764;2022-07-05T03:41:06;15.60;99.90
43949;DHT22;29429;51.074;13.764;2022-07-05T03:43:34;15.70;99.90
43949;DHT22;29429;51.074;13.764;2022-07-05T03:46:01;15.80;99.90
43949;DHT22;29429;51.074;13.764;2022-07-05T03:48:30;15.70;99.90
43949;DHT22;29429;51.074;13.764;2022-07-05T03:51:09;15.70;99.90
43949;DHT22;29429;51.074;13.764;2022-07-05T03:53:36;15.70;99.90
43949;DHT22;29429;51.074;13.764;2022-07-05T03:56:04;15.80;99.90
43949;DHT22;29429;51.074;13.764;2022-07-05T03:58:31;15.80;99.90
43949;DHT22;29429;51.074;13.764;2022-07-05T04:00:59;15.80;99.90
43949;DHT22;29429;51.074;13.764;2022-07-05T04:03:27;15.80;99.90
43949;DHT22;29429;51.074;13.764;2022-07-05T04:05:55;16.00;99.90
43949;DHT22;29429;51.074;13.764;2022-07-05T04:08:22;15.90;99.90
43949;DHT22;29429;51.074;13.764;2022-07-05T04:10:49;16.00;99.90
43949;DHT22;29429;51.074;13.764;2022-07-05T04:13:18;16.00;99.90
43949;DHT22;29429;51.074;13.764;2022-07-05T04:15:47;16.20;99.90
43949;DHT22;29429;51.074;13.764;2022-07-05T04:18:15;16.00;99.90
43949;DHT22;29429;51.074;13.764;2022-07-05T04:20:42;16.30;99.90
43949;DHT22;29429;51.074;13.764;2022-07-05T04:23:11;16.20;99.90
43949;DHT22;29429;51.074;13.764;2022-07-05T04:25:39;16.30;99.90
43949;DHT22;29429;51.074;13.764;2022-07-05T04:28:13;16.20;99.90
43949;DHT22;29429;51.074;13.764;2022-07-05T04:30:41;16.20;99.90
43949;DHT22;29429;51.074;13.764;2022-07-05T04:33:10;16.30;99.90
43949;DHT22;29429;51.074;13.764;2022-07-05T04:35:38;16.40;99.90
43949;DHT22;29429;51.074;13.764;2022-07-05T04:38:06;16.40;99.90
43949;DHT22;29429;51.074;13.764;2022-07-05T04:40:36;16.30;99.90
43949;DHT22;29429;51.074;13.764;2022-07-05T04:43:03;16.50;99.90
43949;DHT22;29429;51.074;13.764;2022-07-05T04:45:30;16.50;99.90
43949;DHT22;29429;51.074;13.764;2022-07-05T04:47:58;16.70;99.90
43949;DHT22;29429;51.074;13.764;2022-07-05T04:50:26;16.80;99.90
43949;DHT22;29429;51.074;13.764;2022-07-05T04:52:54;16.80;99.90
43949;DHT22;29429;51.074;13.764;2022-07-05T04:55:21;16.80;99.90
43949;DHT22;29429;51.074;13.764;2022-07-05T04:57:48;16.90;99.90
43949;DHT22;29429;51.074;13.764;2022-07-05T05:00:15;16.90;99.90
43949;DHT22;29429;51.074;13.764;2022-07-05T05:02:42;16.90;99.90
43949;DHT22;29429;51.074;13.764;2022-07-05T05:05:09;16.90;99.90
43949;DHT22;29429;51.074;13.764;2022-07-05T05:07:36;16.90;99.90
43949;DHT22;29429;51.074;13.764;2022-07-05T05:10:08;16.90;99.90
43949;DHT22;29429;51.074;13.764;2022-07-05T05:12:35;16.90;99.90
43949;DHT22;29429;51.074;13.764;2022-07-05T05:15:02;16.90;99.90
43949;DHT22;29429;51.074;13.764;2022-07-05T05:17:40;16.90;99.90
43949;DHT22;29429;51.074;13.764;2022-07-05T05:20:16;16.90;99.90
43949;DHT22;29429;51.074;13.764;2022-07-05T05:22:45;17.00;99.90
43949;DHT22;29429;51.074;13.764;2022-07-05T05:25:13;17.00;99.90
43949;DHT22;29429;51.074;13.764;2022-07-05T05:27:46;17.00;99.90
43949;DHT22;29429;51.074;13.764;2022-07-05T05:30:18;17.10;99.90
43949;DHT22;29429;51.074;13.764;2022-07-05T05:32:46;17.10;99.90
43949;DHT22;29429;51.074;13.764;2022-07-05T05:35:13;17.20;99.90
43949;DHT22;29429;51.074;13.764;2022-07-05T05:37:51;17.20;99.90
43949;DHT22;29429;51.074;13.764;2022-07-05T05:40:22;17.40;99.90
43949;DHT22;29429;51.074;13.764;2022-07-05T05:42:50;17.50;99.90
43949;DHT22;29429;51.074;13.764;2022-07-05T05:45:18;17.60;99.90
43949;DHT22;29429;51.074;13.764;2022-07-05T05:47:54;17.70;99.90
43949;DHT22;29429;51.074;13.764;2022-07-05T05:50:28;17.80;99.90
43949;DHT22;29429;51.074;13.764;2022-07-05T05:52:59;18.00;99.90
43949;DHT22;29429;51.074;13.764;2022-07-05T05:55:28;18.10;99.90
43949;DHT22;29429;51.074;13.764;2022-07-05T05:57:56;18.10;99.80
43949;DHT22;29429;51.074;13.764;2022-07-05T06:00:24;18.30;99.60
43949;DHT22;29429;51.074;13.764;2022-07-05T06:02:52;18.40;99.00
43949;DHT22;29429;51.074;13.764;2022-07-05T06:05:19;18.50;98.70
43949;DHT22;29429;51.074;13.764;2022-07-05T06:07:52;18.60;98.50
43949;DHT22;29429;51.074;13.764;2022-07-05T06:10:29;18.70;97.60
43949;DHT22;29429;51.074;13.764;2022-07-05T06:12:59;18.80;97.30
43949;DHT22;29429;51.074;13.764;2022-07-05T06:15:29;18.90;97.10
43949;DHT22;29429;51.074;13.764;2022-07-05T06:17:57;19.00;96.60
43949;DHT22;29429;51.074;13.764;2022-07-05T06:20:25;19.10;96.30
43949;DHT22;29429;51.074;13.764;2022-07-05T06:22:57;19.20;96.10
43949;DHT22;29429;51.074;13.764;2022-07-05T06:25:25;19.30;96.10
43949;DHT22;29429;51.074;13.764;2022-07-05T06:27:57;19.40;95.70
43949;DHT22;29429;51.074;13.764;2022-07-05T06:30:31;19.50;95.30
43949;DHT22;29429;51.074;13.764;2022-07-05T06:32:59;19.60;95.30
43949;DHT22;29429;51.074;13.764;2022-07-05T06:35:27;19.60;95.00
43949;DHT22;29429;51.074;13.764;2022-07-05T06:38:02;19.80;95.00
43949;DHT22;29429;51.074;13.764;2022-07-05T06:40:37;19.90;95.00
43949;DHT22;29429;51.074;13.764;2022-07-05T06:43:07;20.10;94.30
43949;DHT22;29429;51.074;13.764;2022-07-05T06:45:47;20.00;93.80
43949;DHT22;29429;51.074;13.764;2022-07-05T06:48:15;20.30;93.80
43949;DHT22;29429;51.074;13.764;2022-07-05T06:50:42;20.40;94.00
43949;DHT22;29429;51.074;13.764;2022-07-05T06:53:11;20.60;94.10
43949;DHT22;29429;51.074;13.764;2022-07-05T06:55:41;20.70;93.30
43949;DHT22;29429;51.074;13.764;2022-07-05T06:58:17;20.80;92.40
43949;DHT22;29429;51.074;13.764;2022-07-05T07:00:44;20.90;92.00
43949;DHT22;29429;51.074;13.764;2022-07-05T07:03:31;21.10;92.10
43949;DHT22;29429;51.074;13.764;2022-07-05T07:06:18;21.20;90.70
43949;DHT22;29429;51.074;13.764;2022-07-05T07:08:46;21.30;90.60
43949;DHT22;29429;51.074;13.764;2022-07-05T07:11:31;21.40;90.10
43949;DHT22;29429;51.074;13.764;2022-07-05T07:13:58;21.50;90.20
43949;DHT22;29429;51.074;13.764;2022-07-05T07:16:25;21.60;88.80
43949;DHT22;29429;51.074;13.764;2022-07-05T07:18:52;21.80;88.90
43949;DHT22;29429;51.074;13.764;2022-07-05T07:21:36;21.80;87.40
43949;DHT22;29429;51.074;13.764;2022-07-05T07:24:03;22.00;86.30
43949;DHT22;29429;51.074;13.764;2022-07-05T07:26:31;22.00;85.00
43949;DHT22;29429;51.074;13.764;2022-07-05T07:29:18;22.10;83.40
43949;DHT22;29429;51.074;13.764;2022-07-05T07:31:45;22.20;82.90
43949;DHT22;29429;51.074;13.764;2022-07-05T07:34:12;22.30;81.90
43949;DHT22;29429;51.074;13.764;2022-07-05T07:36:39;22.30;79.80
43949;DHT22;29429;51.074;13.764;2022-07-05T07:39:05;22.40;78.40
43949;DHT22;29429;51.074;13.764;2022-07-05T07:41:32;22.50;77.60
43949;DHT22;29429;51.074;13.764;2022-07-05T07:43:59;22.60;77.10
43949;DHT22;29429;51.074;13.764;2022-07-05T07:46:28;22.70;76.00
43949;DHT22;29429;51.074;13.764;2022-07-05T07:48:55;22.80;76.10
43949;DHT22;29429;51.074;13.764;2022-07-05T07:51:22;22.90;69.80
43949;DHT22;29429;51.074;13.764;2022-07-05T07:53:49;22.90;68.90
43949;DHT22;29429;51.074;13.764;2022-07-05T07:56:17;22.90;71.30
43949;DHT22;29429;51.074;13.764;2022-07-05T07:58:44;23.00;69.80
43949;DHT22;29429;51.074;13.764;2022-07-05T08:01:12;23.10;66.50
43949;DHT22;29429;51.074;13.764;2022-07-05T08:03:41;23.20;64.20
43949;DHT22;29429;51.074;13.764;2022-07-05T08:06:09;23.30;63.50
43949;DHT22;29429;51.074;13.764;2022-07-05T08:08:38;23.30;63.90
43949;DHT22;29429;51.074;13.764;2022-07-05T08:11:09;23.40;60.20
43949;DHT22;29429;51.074;13.764;2022-07-05T08:13:36;23.40;61.40
43949;DHT22;29429;51.074;13.764;2022-07-05T08:16:04;23.40;61.30
43949;DHT22;29429;51.074;13.764;2022-07-05T08:18:31;23.40;61.30
43949;DHT22;29429;51.074;13.764;2022-07-05T08:21:16;23.40;62.20
43949;DHT22;29429;51.074;13.764;2022-07-05T08:23:59;23.50;62.10
43949;DHT22;29429;51.074;13.764;2022-07-05T08:26:28;23.60;61.20
43949;DHT22;29429;51.074;13.764;2022-07-05T08:28:57;23.60;61.10
43949;DHT22;29429;51.074;13.764;2022-07-05T08:31:38;23.60;61.30
43949;DHT22;29429;51.074;13.764;2022-07-05T08:34:06;23.70;60.40
43949;DHT22;29429;51.074;13.764;2022-07-05T08:36:34;23.80;60.90
43949;DHT22;29429;51.074;13.764;2022-07-05T08:39:01;23.90;60.30
43949;DHT22;29429;51.074;13.764;2022-07-05T08:41:29;23.90;58.30
43949;DHT22;29429;51.074;13.764;2022-07-05T08:44:00;23.90;57.00
43949;DHT22;29429;51.074;13.764;2022-07-05T08:46:33;23.90;57.70
43949;DHT22;29429;51.074;13.764;2022-07-05T08:49:04;24.00;57.90
43949;DHT22;29429;51.074;13.764;2022-07-05T08:51:38;24.00;57.20
43949;DHT22;29429;51.074;13.764;2022-07-05T08:54:12;24.00;57.40
43949;DHT22;29429;51.074;13.764;2022-07-05T08:56:43;24.20;57.90
43949;DHT22;29429;51.074;13.764;2022-07-05T08:59:31;24.20;55.60
43949;DHT22;29429;51.074;13.764;2022-07-05T09:01:59;24.20;55.70
43949;DHT22;29429;51.074;13.764;2022-07-05T09:04:31;24.20;55.80
43949;DHT22;29429;51.074;13.764;2022-07-05T09:07:05;24.20;56.00
43949;DHT22;29429;51.074;13.764;2022-07-05T09:09:38;24.20;55.60
43949;DHT22;29429;51.074;13.764;2022-07-05T09:12:12;24.10;55.60
43949;DHT22;29429;51.074;13.764;2022-07-05T09:14:52;24.20;56.00
43949;DHT22;29429;51.074;13.764;2022-07-05T09:17:20;24.20;55.60
43949;DHT22;29429;51.074;13.764;2022-07-05T09:20:13;24.40;55.70
43949;DHT22;29429;51.074;13.764;2022-07-05T09:25:17;24.50;56.00
43949;DHT22;29429;51.074;13.764;2022-07-05T09:27:58;24.60;55.20
43949;DHT22;29429;51.074;13.764;2022-07-05T09:30:37;24.60;54.60
43949;DHT22;29429;51.074;13.764;2022-07-05T09:33:10;24.70;54.30
43949;DHT22;29429;51.074;13.764;2022-07-05T09:35:43;24.70;53.40
43949;DHT22;29429;51.074;13.764;2022-07-05T09:38:26;24.70;53.70
43949;DHT22;29429;51.074;13.764;2022-07-05T09:40:58;24.70;53.50
43949;DHT22;29429;51.074;13.764;2022-07-05T09:43:28;24.70;52.90
43949;DHT22;29429;51.074;13.764;2022-07-05T09:45:57;24.80;53.20
43949;DHT22;29429;51.074;13.764;2022-07-05T09:48:32;25.00;51.90
43949;DHT22;29429;51.074;13.764;2022-07-05T09:51:10;25.10;51.40
43949;DHT22;29429;51.074;13.764;2022-07-05T09:54:01;25.20;52.00
43949;DHT22;29429;51.074;13.764;2022-07-05T09:56:46;25.40;51.10
43949;DHT22;29429;51.074;13.764;2022-07-05T09:59:16;25.40;50.80
43949;DHT22;29429;51.074;13.764;2022-07-05T10:01:45;25.50;51.30
43949;DHT22;29429;51.074;13.764;2022-07-05T10:04:13;25.50;51.50
43949;DHT22;29429;51.074;13.764;2022-07-05T10:06:40;25.50;51.10
43949;DHT22;29429;51.074;13.764;2022-07-05T10:09:08;25.70;51.10
43949;DHT22;29429;51.074;13.764;2022-07-05T10:11:40;25.90;50.20
43949;DHT22;29429;51.074;13.764;2022-07-05T10:14:16;26.00;48.80
43949;DHT22;29429;51.074;13.764;2022-07-05T10:16:47;26.00;49.10
43949;DHT22;29429;51.074;13.764;2022-07-05T10:19:32;26.00;49.00
43949;DHT22;29429;51.074;13.764;2022-07-05T10:22:02;25.80;49.20
43949;DHT22;29429;51.074;13.764;2022-07-05T10:24:46;25.60;49.20
43949;DHT22;29429;51.074;13.764;2022-07-05T10:27:15;25.30;49.80
43949;DHT22;29429;51.074;13.764;2022-07-05T10:29:44;25.20;50.10
43949;DHT22;29429;51.074;13.764;2022-07-05T10:32:14;25.40;49.80
43949;DHT22;29429;51.074;13.764;2022-07-05T10:34:42;25.50;48.80
43949;DHT22;29429;51.074;13.764;2022-07-05T10:37:32;25.70;48.50
43949;DHT22;29429;51.074;13.764;2022-07-05T10:40:03;25.90;49.00
43949;DHT22;29429;51.074;13.764;2022-07-05T10:42:38;26.00;48.90
43949;DHT22;29429;51.074;13.764;2022-07-05T10:45:27;26.00;48.50
43949;DHT22;29429;51.074;13.764;2022-07-05T10:53:27;25.90;48.70
43949;DHT22;29429;51.074;13.764;2022-07-05T11:03:42;26.30;49.50
43949;DHT22;29429;51.074;13.764;2022-07-05T11:06:26;26.50;48.10
43949;DHT22;29429;51.074;13.764;2022-07-05T11:20:17;26.10;48.00
43949;DHT22;29429;51.074;13.764;2022-07-05T11:23:10;26.20;47.50
43949;DHT22;29429;51.074;13.764;2022-07-05T11:25:40;26.40;47.30
43949;DHT22;29429;51.074;13.764;2022-07-05T11:28:20;26.70;47.40
43949;DHT22;29429;51.074;13.764;2022-07-05T11:30:54;27.00;46.00
43949;DHT22;29429;51.074;13.764;2022-07-05T11:36:25;27.30;45.70
43949;DHT22;29429;51.074;13.764;2022-07-05T11:39:08;27.00;45.30
43949;DHT22;29429;51.074;13.764;2022-07-05T11:41:42;26.70;45.40
43949;DHT22;29429;51.074;13.764;2022-07-05T11:44:10;26.40;45.80
43949;DHT22;29429;51.074;13.764;2022-07-05T11:46:37;26.10;46.50
43949;DHT22;29429;51.074;13.764;2022-07-05T11:49:19;25.90;47.00
43949;DHT22;29429;51.074;13.764;2022-07-05T11:51:59;25.70;47.40
43949;DHT22;29429;51.074;13.764;2022-07-05T11:54:30;25.50;47.40
43949;DHT22;29429;51.074;13.764;2022-07-05T11:56:59;25.40;47.50
43949;DHT22;29429;51.074;13.764;2022-07-05T11:59:27;25.40;47.70
43949;DHT22;29429;51.074;13.764;2022-07-05T12:01:54;25.60;48.10
43949;DHT22;29429;51.074;13.764;2022-07-05T12:04:29;25.90;46.80
43949;DHT22;29429;51.074;13.764;2022-07-05T12:06:58;26.00;46.50
43949;DHT22;29429;51.074;13.764;2022-07-05T12:09:27;26.10;46.80
43949;DHT22;29429;51.074;13.764;2022-07-05T12:12:22;26.30;47.10
43949;DHT22;29429;51.074;13.764;2022-07-05T12:15:21;26.60;47.50
43949;DHT22;29429;51.074;13.764;2022-07-05T12:17:50;26.60;46.20
43949;DHT22;29429;51.074;13.764;2022-07-05T12:20:22;26.60;46.70
43949;DHT22;29429;51.074;13.764;2022-07-05T12:22:50;26.60;45.90
43949;DHT22;29429;51.074;13.764;2022-07-05T12:25:20;26.60;46.80
43949;DHT22;29429;51.074;13.764;2022-07-05T12:27:49;26.60;45.40
43949;DHT22;29429;51.074;13.764;2022-07-05T12:30:17;26.70;46.10
43949;DHT22;29429;51.074;13.764;2022-07-05T12:33:05;26.80;45.40
43949;DHT22;29429;51.074;13.764;2022-07-05T12:35:45;27.00;45.50
43949;DHT22;29429;51.074;13.764;2022-07-05T12:38:14;27.10;45.90
43949;DHT22;29429;51.074;13.764;2022-07-05T12:40:58;27.20;44.70
43949;DHT22;29429;51.074;13.764;2022-07-05T12:43:26;27.40;45.10
43949;DHT22;29429;51.074;13.764;2022-07-05T12:46:05;27.50;44.30
43949;DHT22;29429;51.074;13.764;2022-07-05T12:48:35;27.40;44.00
43949;DHT22;29429;51.074;13.764;2022-07-05T12:51:15;27.20;44.40
43949;DHT22;29429;51.074;13.764;2022-07-05T12:54:21;27.20;44.90
43949;DHT22;29429;51.074;13.764;2022-07-05T12:57:19;27.20;44.20
43949;DHT22;29429;51.074;13.764;2022-07-05T13:00:09;27.10;44.50
43949;DHT22;29429;51.074;13.764;2022-07-05T13:02:39;27.10;44.40
43949;DHT22;29429;51.074;13.764;2022-07-05T13:05:09;27.10;45.30
43949;DHT22;29429;51.074;13.764;2022-07-05T13:07:49;27.30;45.00
43949;DHT22;29429;51.074;13.764;2022-07-05T13:10:27;27.40;44.10
43949;DHT22;29429;51.074;13.764;2022-07-05T13:13:06;27.30;44.30
43949;DHT22;29429;51.074;13.764;2022-07-05T13:15:36;27.10;44.40
43949;DHT22;29429;51.074;13.764;2022-07-05T13:18:30;26.90;44.80
43949;DHT22;29429;51.074;13.764;2022-07-05T13:21:00;26.70;45.40
43949;DHT22;29429;51.074;13.764;2022-07-05T13:23:36;26.60;46.30
43949;DHT22;29429;51.074;13.764;2022-07-05T13:26:05;26.60;45.30
43949;DHT22;29429;51.074;13.764;2022-07-05T13:28:35;26.50;45.80
43949;DHT22;29429;51.074;13.764;2022-07-05T13:31:02;26.60;45.80
43949;DHT22;29429;51.074;13.764;2022-07-05T13:33:29;26.70;46.20
43949;DHT22;29429;51.074;13.764;2022-07-05T13:35:57;26.90;45.10
43949;DHT22;29429;51.074;13.764;2022-07-05T13:38:24;27.10;44.70
43949;DHT22;29429;51.074;13.764;2022-07-05T13:40:51;27.20;44.50
43949;DHT22;29429;51.074;13.764;2022-07-05T13:43:18;27.40;44.60
43949;DHT22;29429;51.074;13.764;2022-07-05T13:45:45;27.40;44.40
43949;DHT22;29429;51.074;13.764;2022-07-05T13:48:12;27.40;45.00
43949;DHT22;29429;51.074;13.764;2022-07-05T13:50:38;27.50;44.60
43949;DHT22;29429;51.074;13.764;2022-07-05T13:53:06;27.60;44.20
43949;DHT22;29429;51.074;13.764;2022-07-05T13:55:33;27.60;44.20
43949;DHT22;29429;51.074;13.764;2022-07-05T13:58:02;27.70;43.80
43949;DHT22;29429;51.074;13.764;2022-07-05T14:00:29;27.60;43.40
43949;DHT22;29429;51.074;13.764;2022-07-05T14:02:56;27.50;44.10
43949;DHT22;29429;51.074;13.764;2022-07-05T14:05:31;27.60;43.60
43949;DHT22;29429;51.074;13.764;2022-07-05T14:08:06;27.60;43.70
43949;DHT22;29429;51.074;13.764;2022-07-05T14:10:36;27.60;43.90
43949;DHT22;29429;51.074;13.764;2022-07-05T14:13:03;27.60;43.40
43949;DHT22;29429;51.074;13.764;2022-07-05T14:15:30;27.40;44.00
43949;DHT22;29429;51.074;13.764;2022-07-05T14:17:57;27.40;44.70
43949;DHT22;29429;51.074;13.764;2022-07-05T14:20:26;27.50;44.10
43949;DHT22;29429;51.074;13.764;2022-07-05T14:22:53;27.60;44.50
43949;DHT22;29429;51.074;13.764;2022-07-05T14:25:20;27.80;43.50
43949;DHT22;29429;51.074;13.764;2022-07-05T14:27:47;28.00;43.90
43949;DHT22;29429;51.074;13.764;2022-07-05T14:30:13;28.20;43.40
43949;DHT22;29429;51.074;13.764;2022-07-05T14:32:40;28.30;43.90
43949;DHT22;29429;51.074;13.764;2022-07-05T14:35:15;28.50;43.00
43949;DHT22;29429;51.074;13.764;2022-07-05T14:37:42;28.60;42.90
43949;DHT22;29429;51.074;13.764;2022-07-05T14:40:10;28.80;42.10
43949;DHT22;29429;51.074;13.764;2022-07-05T14:42:37;28.80;41.50
43949;DHT22;29429;51.074;13.764;2022-07-05T14:45:04;28.60;41.70
43949;DHT22;29429;51.074;13.764;2022-07-05T14:47:31;28.40;42.30
43949;DHT22;29429;51.074;13.764;2022-07-05T14:49:58;28.20;42.20
43949;DHT22;29429;51.074;13.764;2022-07-05T14:52:25;28.00;42.80
43949;DHT22;29429;51.074;13.764;2022-07-05T14:54:53;28.00;42.90
43949;DHT22;29429;51.074;13.764;2022-07-05T14:57:20;27.80;42.50
43949;DHT22;29429;51.074;13.764;2022-07-05T14:59:47;27.50;43.40
43949;DHT22;29429;51.074;13.764;2022-07-05T15:02:14;27.20;43.10
43949;DHT22;29429;51.074;13.764;2022-07-05T15:04:41;27.00;43.60
43949;DHT22;29429;51.074;13.764;2022-07-05T15:07:08;26.90;43.50
43949;DHT22;29429;51.074;13.764;2022-07-05T15:09:35;26.90;43.40
43949;DHT22;29429;51.074;13.764;2022-07-05T15:12:02;26.90;44.20
43949;DHT22;29429;51.074;13.764;2022-07-05T15:14:29;26.90;43.80
43949;DHT22;29429;51.074;13.764;2022-07-05T15:16:57;26.90;43.70
43949;DHT22;29429;51.074;13.764;2022-07-05T15:19:24;27.00;44.00
43949;DHT22;29429;51.074;13.764;2022-07-05T15:21:51;26.90;44.00
43949;DHT22;29429;51.074;13.764;2022-07-05T15:24:18;26.90;43.90
43949;DHT22;29429;51.074;13.764;2022-07-05T15:26:47;26.90;43.60
43949;DHT22;29429;51.074;13.764;2022-07-05T15:29:14;26.90;44.30
43949;DHT22;29429;51.074;13.764;2022-07-05T15:31:41;26.90;44.40
43949;DHT22;29429;51.074;13.764;2022-07-05T15:34:08;26.90;44.30
43949;DHT22;29429;51.074;13.764;2022-07-05T15:36:36;27.00;43.90
43949;DHT22;29429;51.074;13.764;2022-07-05T15:39:05;27.00;43.70
43949;DHT22;29429;51.074;13.764;2022-07-05T15:41:33;26.90;43.50
43949;DHT22;29429;51.074;13.764;2022-07-05T15:44:03;26.80;44.00
43949;DHT22;29429;51.074;13.764;2022-07-05T15:46:30;26.70;44.50
43949;DHT22;29429;51.074;13.764;2022-07-05T15:49:17;26.70;44.00
43949;DHT22;29429;51.074;13.764;2022-07-05T15:51:44;26.70;44.20
43949;DHT22;29429;51.074;13.764;2022-07-05T15:54:11;26.70;44.40
43949;DHT22;29429;51.074;13.764;2022-07-05T15:56:39;26.70;44.20
43949;DHT22;29429;51.074;13.764;2022-07-05T15:59:07;26.80;44.60
43949;DHT22;29429;51.074;13.764;2022-07-05T16:01:34;26.90;43.90
43949;DHT22;29429;51.074;13.764;2022-07-05T16:04:03;26.90;43.80
43949;DHT22;29429;51.074;13.764;2022-07-05T16:06:30;26.90;43.70